This is the latest recevied weather packets stored in our database for station/object W7PLC. If no packets are shown the sender has not sent any weather packets the latest 10 day(s).
| Time | Temp. | Humidity | Pressure | Rain* | Wind** | Luminosity | Snow |
|---|---|---|---|---|---|---|---|
| 1777866560 | 20.56° C | 62% | 1006.9 hPa | 0 mm | - | 0 W/m² | - |
| 1777865954 | 21.11° C | 61% | 1007 hPa | 0 mm | - | 0 W/m² | - |
| 1777865046 | 21.67° C | 60% | 1007 hPa | 0 mm | - | 0 W/m² | - |
| 1777846259 | 30.56° C | 37% | 1009 hPa | 0 mm | - | 703 W/m² | - |
| 1777845349 | 29.44° C | 39% | 1009.4 hPa | 0 mm | - | 663 W/m² | - |
| 1777844139 | 30° C | 39% | 1009.4 hPa | 0 mm | - | 745 W/m² | - |
| 1777843533 | 30° C | 39% | 1009.5 hPa | 0 mm | - | 631 W/m² | - |
| 1777842320 | 28.89° C | 41% | 1009.7 hPa | 0 mm | - | 680 W/m² | - |
| 1777841409 | 28.89° C | 40% | 1010 hPa | 0 mm | - | 697 W/m² | - |
| 1777840803 | 28.33° C | 42% | 1010.1 hPa | 0 mm | - | 674 W/m² | - |
| 1777839895 | 27.22° C | 43% | 1010.1 hPa | 0 mm | - | 704 W/m² | - |
| 1777839593 | 27.78° C | 43% | 1010.5 hPa | 0 mm | - | 721 W/m² | - |
| 1777838078 | 27.78° C | 43% | 1010.7 hPa | 0 mm | - | 680 W/m² | - |
| 1777835648 | 26.67° C | 45% | 1011.1 hPa | 0 mm | - | 655 W/m² | - |
| 1777833224 | 25° C | 48% | 1011.7 hPa | 0 mm | - | 639 W/m² | - |
| 1777832921 | 25° C | 49% | 1011.9 hPa | 0 mm | - | 638 W/m² | - |
| 1777832620 | 25° C | 48% | 1011.7 hPa | 0 mm | - | 606 W/m² | - |
| 1777832014 | 23.89° C | 50% | 1011.8 hPa | 0 mm | - | 606 W/m² | - |
| 1777829588 | 23.33° C | 53% | 1011.9 hPa | 0 mm | - | 481 W/m² | - |
| 1777829285 | 23.33° C | 53% | 1012.2 hPa | 0 mm | - | 521 W/m² | - |
| 1777828072 | 22.78° C | 51% | 1012.4 hPa | 0 mm | - | 479 W/m² | - |
| 1777827466 | 23.33° C | 53% | 1012.2 hPa | 0 mm | - | 493 W/m² | - |
| 1777826253 | 20.56° C | 59% | 1012.7 hPa | 0 mm | - | 406 W/m² | - |
| 1777825951 | 20° C | 60% | 1012.4 hPa | 0 mm | - | 393 W/m² | - |
| 1777825647 | 20.56° C | 60% | 1012.4 hPa | 0 mm | - | 417 W/m² | - |
* Rain latest hour (hover to see other rain measurements)
** Current wind speed in m/s (hover to see current wind gust speed)